Paso de Indios, Argentina
Current Conditions -  °F | °C
As of 5:00 AM on Friday 31 Oct 2014 (Local Time) from SAVE Reporting Station
Scattered Clouds Scattered Clouds  
Wind Chill: 25°   Ceiling: Unl
Heat Index: 32°   Visibility: 6mi
Dew Point: 28°   Wind: 8mph
Humidity: 87%   Direction: 250°WSW
Pressure: 30"   Gusts: NA
Location:  43.86°S, 69.05°W
Report Text: SAVE 310800Z 25007KT 9999 SCT025 00/M02 Q1016
Loading
Personal Weather Stations






























Interactive Weather Map
Tropical Storm Tracking
New forecast layout! Learn more

10-Day Weather Forecast

Advertisements
Track Severe Weather on mobile